sensor_id;sensor_type;location;lat;lon;timestamp;pressure;altitude;pressure_sealevel;temperature;humidity
4972;BME280;2501;51.214;6.768;2023-04-08T00:00:00;101878.41;;;7.99;100.00
4972;BME280;2501;51.214;6.768;2023-04-08T00:02:31;101877.38;;;7.94;100.00
4972;BME280;2501;51.214;6.768;2023-04-08T00:04:59;101877.44;;;7.96;100.00
4972;BME280;2501;51.214;6.768;2023-04-08T00:07:28;101882.00;;;8.03;100.00
4972;BME280;2501;51.214;6.768;2023-04-08T00:09:56;101881.13;;;8.02;100.00
4972;BME280;2501;51.214;6.768;2023-04-08T00:12:24;101883.44;;;7.93;100.00
4972;BME280;2501;51.214;6.768;2023-04-08T00:14:53;101873.19;;;7.99;100.00
4972;BME280;2501;51.214;6.768;2023-04-08T00:17:24;101878.91;;;8.15;100.00
4972;BME280;2501;51.214;6.768;2023-04-08T00:19:53;101881.50;;;8.13;100.00
4972;BME280;2501;51.214;6.768;2023-04-08T00:22:22;101876.91;;;8.06;100.00
4972;BME280;2501;51.214;6.768;2023-04-08T00:24:50;101875.06;;;8.03;100.00
4972;BME280;2501;51.214;6.768;2023-04-08T00:27:18;101886.22;;;7.99;100.00
4972;BME280;2501;51.214;6.768;2023-04-08T00:29:49;101885.28;;;7.96;100.00
4972;BME280;2501;51.214;6.768;2023-04-08T00:32:17;101887.78;;;7.93;100.00
4972;BME280;2501;51.214;6.768;2023-04-08T00:34:48;101881.50;;;8.13;100.00
4972;BME280;2501;51.214;6.768;2023-04-08T00:37:17;101883.09;;;7.84;100.00
4972;BME280;2501;51.214;6.768;2023-04-08T00:39:45;101886.13;;;7.71;100.00
4972;BME280;2501;51.214;6.768;2023-04-08T00:42:14;101885.97;;;8.17;100.00
4972;BME280;2501;51.214;6.768;2023-04-08T00:44:42;101888.22;;;8.32;100.00
4972;BME280;2501;51.214;6.768;2023-04-08T00:47:11;101883.78;;;8.04;100.00
4972;BME280;2501;51.214;6.768;2023-04-08T00:49:40;101886.88;;;7.92;100.00
4972;BME280;2501;51.214;6.768;2023-04-08T00:52:11;101884.34;;;8.21;100.00
4972;BME280;2501;51.214;6.768;2023-04-08T00:54:40;101887.84;;;8.21;100.00
4972;BME280;2501;51.214;6.768;2023-04-08T00:57:09;101889.13;;;8.07;100.00
4972;BME280;2501;51.214;6.768;2023-04-08T00:59:37;101886.41;;;8.04;100.00
4972;BME280;2501;51.214;6.768;2023-04-08T01:02:11;101884.72;;;8.06;100.00
4972;BME280;2501;51.214;6.768;2023-04-08T01:04:50;101889.69;;;7.98;100.00
4972;BME280;2501;51.214;6.768;2023-04-08T01:07:26;101892.41;;;8.01;100.00
4972;BME280;2501;51.214;6.768;2023-04-08T01:09:56;101891.69;;;8.06;100.00
4972;BME280;2501;51.214;6.768;2023-04-08T01:12:31;101888.00;;;8.00;100.00
4972;BME280;2501;51.214;6.768;2023-04-08T01:15:04;101890.69;;;8.02;100.00
4972;BME280;2501;51.214;6.768;2023-04-08T01:17:34;101892.34;;;8.00;100.00
4972;BME280;2501;51.214;6.768;2023-04-08T01:20:06;101895.59;;;7.93;100.00
4972;BME280;2501;51.214;6.768;2023-04-08T01:22:45;101889.38;;;7.89;100.00
4972;BME280;2501;51.214;6.768;2023-04-08T01:25:22;101897.16;;;7.88;100.00
4972;BME280;2501;51.214;6.768;2023-04-08T01:27:55;101893.88;;;7.93;100.00
4972;BME280;2501;51.214;6.768;2023-04-08T01:30:27;101896.59;;;7.96;100.00
4972;BME280;2501;51.214;6.768;2023-04-08T01:32:56;101899.28;;;7.99;100.00
4972;BME280;2501;51.214;6.768;2023-04-08T01:35:27;101908.97;;;8.02;100.00
4972;BME280;2501;51.214;6.768;2023-04-08T01:37:56;101904.38;;;7.95;100.00
4972;BME280;2501;51.214;6.768;2023-04-08T01:40:25;101907.06;;;7.98;100.00
4972;BME280;2501;51.214;6.768;2023-04-08T01:42:58;101907.91;;;7.97;100.00
4972;BME280;2501;51.214;6.768;2023-04-08T01:45:27;101904.53;;;7.99;100.00
4972;BME280;2501;51.214;6.768;2023-04-08T01:47:57;101905.47;;;8.01;100.00
4972;BME280;2501;51.214;6.768;2023-04-08T01:50:27;101900.25;;;8.01;100.00
4972;BME280;2501;51.214;6.768;2023-04-08T01:52:58;101903.69;;;8.00;100.00
4972;BME280;2501;51.214;6.768;2023-04-08T01:55:27;101904.75;;;8.06;100.00
4972;BME280;2501;51.214;6.768;2023-04-08T01:57:59;101905.53;;;8.28;100.00
4972;BME280;2501;51.214;6.768;2023-04-08T02:00:30;101901.09;;;8.26;100.00
4972;BME280;2501;51.214;6.768;2023-04-08T02:03:00;101908.59;;;8.17;100.00
4972;BME280;2501;51.214;6.768;2023-04-08T02:05:29;101909.38;;;8.14;100.00
4972;BME280;2501;51.214;6.768;2023-04-08T02:07:58;101914.31;;;8.05;100.00
4972;BME280;2501;51.214;6.768;2023-04-08T02:10:27;101911.75;;;8.07;100.00
4972;BME280;2501;51.214;6.768;2023-04-08T02:12:57;101904.63;;;8.02;100.00
4972;BME280;2501;51.214;6.768;2023-04-08T02:15:28;101907.31;;;8.04;100.00
4972;BME280;2501;51.214;6.768;2023-04-08T02:18:07;101904.81;;;8.07;100.00
4972;BME280;2501;51.214;6.768;2023-04-08T02:20:43;101909.97;;;8.06;100.00
4972;BME280;2501;51.214;6.768;2023-04-08T02:23:16;101909.97;;;8.06;100.00
4972;BME280;2501;51.214;6.768;2023-04-08T02:25:47;101906.81;;;8.16;100.00
4972;BME280;2501;51.214;6.768;2023-04-08T02:28:18;101908.53;;;8.14;100.00
4972;BME280;2501;51.214;6.768;2023-04-08T02:30:49;101908.34;;;8.09;100.00
4972;BME280;2501;51.214;6.768;2023-04-08T02:33:20;101912.63;;;8.07;100.00
4972;BME280;2501;51.214;6.768;2023-04-08T02:35:50;101911.97;;;8.13;100.00
4972;BME280;2501;51.214;6.768;2023-04-08T02:38:19;101909.84;;;8.02;100.00
4972;BME280;2501;51.214;6.768;2023-04-08T02:40:49;101913.13;;;7.97;100.00
4972;BME280;2501;51.214;6.768;2023-04-08T02:43:20;101910.63;;;8.00;100.00
4972;BME280;2501;51.214;6.768;2023-04-08T02:45:51;101909.97;;;8.06;100.00
4972;BME280;2501;51.214;6.768;2023-04-08T02:48:19;101913.47;;;8.06;100.00
4972;BME280;2501;51.214;6.768;2023-04-08T02:50:48;101918.09;;;8.13;100.00
4972;BME280;2501;51.214;6.768;2023-04-08T02:53:16;101912.91;;;8.40;100.00
4972;BME280;2501;51.214;6.768;2023-04-08T02:55:44;101916.69;;;8.48;100.00
4972;BME280;2501;51.214;6.768;2023-04-08T02:58:13;101914.16;;;8.51;100.00
4972;BME280;2501;51.214;6.768;2023-04-08T03:00:44;101913.25;;;8.25;100.00
4972;BME280;2501;51.214;6.768;2023-04-08T03:03:12;101915.38;;;8.35;100.00
4972;BME280;2501;51.214;6.768;2023-04-08T03:05:41;101919.53;;;8.30;100.00
4972;BME280;2501;51.214;6.768;2023-04-08T03:08:09;101923.38;;;8.16;100.00
4972;BME280;2501;51.214;6.768;2023-04-08T03:10:37;101926.66;;;8.09;100.00
4972;BME280;2501;51.214;6.768;2023-04-08T03:13:06;101922.09;;;8.03;100.00
4972;BME280;2501;51.214;6.768;2023-04-08T03:15:34;101919.47;;;8.03;100.00
4972;BME280;2501;51.214;6.768;2023-04-08T03:18:05;101922.25;;;8.08;100.00
4972;BME280;2501;51.214;6.768;2023-04-08T03:20:34;101922.16;;;8.05;100.00
4972;BME280;2501;51.214;6.768;2023-04-08T03:23:02;101925.94;;;8.13;100.00
4972;BME280;2501;51.214;6.768;2023-04-08T03:25:31;101928.13;;;8.26;100.00
4972;BME280;2501;51.214;6.768;2023-04-08T03:27:59;101933.13;;;8.20;100.00
4972;BME280;2501;51.214;6.768;2023-04-08T03:30:27;101928.78;;;8.21;100.00
4972;BME280;2501;51.214;6.768;2023-04-08T03:32:56;101932.22;;;8.20;100.00
4972;BME280;2501;51.214;6.768;2023-04-08T03:35:27;101920.50;;;8.32;100.00
4972;BME280;2501;51.214;6.768;2023-04-08T03:37:55;101921.50;;;8.36;100.00
4972;BME280;2501;51.214;6.768;2023-04-08T03:40:23;101922.28;;;8.33;100.00
4972;BME280;2501;51.214;6.768;2023-04-08T03:42:52;101931.16;;;8.38;100.00
4972;BME280;2501;51.214;6.768;2023-04-08T03:45:20;101928.94;;;8.25;100.00
4972;BME280;2501;51.214;6.768;2023-04-08T03:47:49;101939.34;;;8.24;100.00
4972;BME280;2501;51.214;6.768;2023-04-08T03:50:17;101932.03;;;8.14;100.00
4972;BME280;2501;51.214;6.768;2023-04-08T03:52:48;101935.69;;;8.19;100.00
4972;BME280;2501;51.214;6.768;2023-04-08T03:55:17;101930.34;;;8.16;100.00
4972;BME280;2501;51.214;6.768;2023-04-08T03:57:45;101936.94;;;8.04;100.00
4972;BME280;2501;51.214;6.768;2023-04-08T04:00:14;101943.22;;;8.10;100.00
4972;BME280;2501;51.214;6.768;2023-04-08T04:02:42;101934.44;;;8.08;100.00
4972;BME280;2501;51.214;6.768;2023-04-08T04:05:11;101934.97;;;8.23;100.00
4972;BME280;2501;51.214;6.768;2023-04-08T04:07:39;101933.50;;;8.06;100.00
4972;BME280;2501;51.214;6.768;2023-04-08T04:10:10;101932.91;;;8.14;100.00
4972;BME280;2501;51.214;6.768;2023-04-08T04:12:39;101932.88;;;8.13;100.00
4972;BME280;2501;51.214;6.768;2023-04-08T04:15:10;101931.88;;;8.09;100.00
4972;BME280;2501;51.214;6.768;2023-04-08T04:17:38;101934.25;;;8.03;100.00
4972;BME280;2501;51.214;6.768;2023-04-08T04:20:08;101943.56;;;7.95;100.00
4972;BME280;2501;51.214;6.768;2023-04-08T04:22:36;101943.56;;;7.95;100.00
4972;BME280;2501;51.214;6.768;2023-04-08T04:25:06;101947.97;;;7.96;100.00
4972;BME280;2501;51.214;6.768;2023-04-08T04:27:37;101949.81;;;8.00;100.00
4972;BME280;2501;51.214;6.768;2023-04-08T04:30:07;101950.81;;;8.03;100.00
4972;BME280;2501;51.214;6.768;2023-04-08T04:32:39;101959.44;;;8.01;100.00
4972;BME280;2501;51.214;6.768;2023-04-08T04:35:12;101956.88;;;8.02;100.00
4972;BME280;2501;51.214;6.768;2023-04-08T04:37:40;101960.75;;;7.88;100.00
4972;BME280;2501;51.214;6.768;2023-04-08T04:40:09;101967.56;;;7.85;100.00
4972;BME280;2501;51.214;6.768;2023-04-08T04:42:40;101970.34;;;7.89;100.00
4972;BME280;2501;51.214;6.768;2023-04-08T04:45:09;101972.91;;;7.88;100.00
4972;BME280;2501;51.214;6.768;2023-04-08T04:47:38;101974.19;;;7.75;100.00
4972;BME280;2501;51.214;6.768;2023-04-08T04:50:07;101966.19;;;7.71;100.00
4972;BME280;2501;51.214;6.768;2023-04-08T04:52:36;101973.38;;;7.76;100.00
4972;BME280;2501;51.214;6.768;2023-04-08T04:55:06;101975.41;;;7.85;100.00
4972;BME280;2501;51.214;6.768;2023-04-08T04:57:35;101976.09;;;7.79;100.00
4972;BME280;2501;51.214;6.768;2023-04-08T05:00:07;101975.75;;;7.94;100.00
4972;BME280;2501;51.214;6.768;2023-04-08T05:02:36;101974.16;;;7.99;100.00
4972;BME280;2501;51.214;6.768;2023-04-08T05:05:05;101978.31;;;7.92;100.00
4972;BME280;2501;51.214;6.768;2023-04-08T05:07:34;101974.09;;;7.96;100.00
4972;BME280;2501;51.214;6.768;2023-04-08T05:10:04;101978.44;;;7.97;100.00
4972;BME280;2501;51.214;6.768;2023-04-08T05:12:32;101983.97;;;7.81;100.00
4972;BME280;2501;51.214;6.768;2023-04-08T05:15:06;101979.09;;;8.15;100.00
4972;BME280;2501;51.214;6.768;2023-04-08T05:17:34;101974.00;;;8.18;100.00
4972;BME280;2501;51.214;6.768;2023-04-08T05:20:03;101978.31;;;8.18;100.00
4972;BME280;2501;51.214;6.768;2023-04-08T05:22:32;101981.94;;;7.96;100.00
4972;BME280;2501;51.214;6.768;2023-04-08T05:25:00;101978.44;;;7.97;100.00
4972;BME280;2501;51.214;6.768;2023-04-08T05:27:29;101983.59;;;7.94;100.00
4972;BME280;2501;51.214;6.768;2023-04-08T05:29:57;101986.03;;;7.89;100.00
4972;BME280;2501;51.214;6.768;2023-04-08T05:32:29;101990.69;;;7.98;100.00
4972;BME280;2501;51.214;6.768;2023-04-08T05:34:57;101979.81;;;8.10;100.00
4972;BME280;2501;51.214;6.768;2023-04-08T05:37:26;101991.44;;;8.19;100.00
4972;BME280;2501;51.214;6.768;2023-04-08T05:39:54;101996.69;;;8.19;100.00
4972;BME280;2501;51.214;6.768;2023-04-08T05:42:22;102004.47;;;8.18;100.00
4972;BME280;2501;51.214;6.768;2023-04-08T05:44:51;102009.19;;;8.04;100.00
4972;BME280;2501;51.214;6.768;2023-04-08T05:47:19;102013.31;;;7.97;100.00
4972;BME280;2501;51.214;6.768;2023-04-08T05:49:51;102015.66;;;8.14;100.00
4972;BME280;2501;51.214;6.768;2023-04-08T05:52:19;102016.78;;;7.96;100.00
4972;BME280;2501;51.214;6.768;2023-04-08T05:54:48;102020.47;;;8.03;100.00
4972;BME280;2501;51.214;6.768;2023-04-08T05:57:16;102025.13;;;8.10;100.00
4972;BME280;2501;51.214;6.768;2023-04-08T05:59:45;102027.16;;;8.19;100.00
4972;BME280;2501;51.214;6.768;2023-04-08T06:02:13;102030.47;;;8.15;100.00
4972;BME280;2501;51.214;6.768;2023-04-08T06:04:42;102023.88;;;8.24;100.00
4972;BME280;2501;51.214;6.768;2023-04-08T06:07:13;102020.59;;;8.30;100.00
4972;BME280;2501;51.214;6.768;2023-04-08T06:09:42;102030.34;;;8.10;100.00
4972;BME280;2501;51.214;6.768;2023-04-08T06:12:10;102027.88;;;8.38;100.00
4972;BME280;2501;51.214;6.768;2023-04-08T06:14:39;102025.97;;;8.58;100.00
4972;BME280;2501;51.214;6.768;2023-04-08T06:17:07;102030.78;;;8.46;100.00
4972;BME280;2501;51.214;6.768;2023-04-08T06:19:36;102032.81;;;8.55;100.00
4972;BME280;2501;51.214;6.768;2023-04-08T06:22:04;102037.09;;;8.53;100.00
4972;BME280;2501;51.214;6.768;2023-04-08T06:24:35;102044.84;;;8.50;100.00
4972;BME280;2501;51.214;6.768;2023-04-08T06:27:04;102044.34;;;8.36;100.00
4972;BME280;2501;51.214;6.768;2023-04-08T06:29:33;102050.47;;;8.36;100.00
4972;BME280;2501;51.214;6.768;2023-04-08T06:32:01;102056.09;;;8.47;100.00
4972;BME280;2501;51.214;6.768;2023-04-08T06:34:30;102052.47;;;8.69;100.00
4972;BME280;2501;51.214;6.768;2023-04-08T06:36:58;102042.69;;;8.38;100.00
4972;BME280;2501;51.214;6.768;2023-04-08T06:39:27;102050.81;;;8.71;100.00
4972;BME280;2501;51.214;6.768;2023-04-08T06:41:58;102052.47;;;8.69;100.00
4972;BME280;2501;51.214;6.768;2023-04-08T06:44:27;102054.78;;;8.60;100.00
4972;BME280;2501;51.214;6.768;2023-04-08T06:46:55;102050.66;;;8.41;100.00
4972;BME280;2501;51.214;6.768;2023-04-08T06:49:23;102053.50;;;8.49;100.00
4972;BME280;2501;51.214;6.768;2023-04-08T06:51:52;102057.00;;;8.49;100.00
4972;BME280;2501;51.214;6.768;2023-04-08T06:54:20;102062.53;;;8.33;100.00
4972;BME280;2501;51.214;6.768;2023-04-08T06:56:49;102067.03;;;8.37;100.00
4972;BME280;2501;51.214;6.768;2023-04-08T06:59:20;102066.75;;;8.29;100.00
4972;BME280;2501;51.214;6.768;2023-04-08T07:01:48;102067.25;;;8.19;100.00
4972;BME280;2501;51.214;6.768;2023-04-08T07:04:16;102072.81;;;8.28;100.00
4972;BME280;2501;51.214;6.768;2023-04-08T07:06:45;102075.84;;;8.17;100.00
4972;BME280;2501;51.214;6.768;2023-04-08T07:09:13;102076.47;;;8.10;100.00
4972;BME280;2501;51.214;6.768;2023-04-08T07:11:42;102081.50;;;8.27;100.00
4972;BME280;2501;51.214;6.768;2023-04-08T07:14:11;102080.75;;;8.31;100.00
4972;BME280;2501;51.214;6.768;2023-04-08T07:16:42;102077.25;;;8.07;100.00
4972;BME280;2501;51.214;6.768;2023-04-08T07:19:10;102083.88;;;8.21;100.00
4972;BME280;2501;51.214;6.768;2023-04-08T07:21:38;102083.44;;;8.33;100.00
4972;BME280;2501;51.214;6.768;2023-04-08T07:24:07;102084.56;;;8.40;100.00
4972;BME280;2501;51.214;6.768;2023-04-08T07:26:36;102081.00;;;8.61;100.00
4972;BME280;2501;51.214;6.768;2023-04-08T07:29:05;102082.34;;;9.01;100.00
4972;BME280;2501;51.214;6.768;2023-04-08T07:31:33;102083.34;;;8.54;100.00
4972;BME280;2501;51.214;6.768;2023-04-08T07:34:04;102088.38;;;8.49;100.00
4972;BME280;2501;51.214;6.768;2023-04-08T07:36:33;102090.53;;;8.35;100.00
4972;BME280;2501;51.214;6.768;2023-04-08T07:39:01;102102.56;;;8.08;100.00
4972;BME280;2501;51.214;6.768;2023-04-08T07:41:30;102097.31;;;8.08;100.00
4972;BME280;2501;51.214;6.768;2023-04-08T07:43:58;102101.81;;;8.34;100.00
4972;BME280;2501;51.214;6.768;2023-04-08T07:46:26;102110.41;;;8.32;100.00
4972;BME280;2501;51.214;6.768;2023-04-08T07:48:55;102110.84;;;8.43;100.00
4972;BME280;2501;51.214;6.768;2023-04-08T07:51:26;102113.03;;;8.32;100.00
4972;BME280;2501;51.214;6.768;2023-04-08T07:53:55;102115.72;;;8.57;100.00
4972;BME280;2501;51.214;6.768;2023-04-08T07:56:23;102108.47;;;8.74;100.00
4972;BME280;2501;51.214;6.768;2023-04-08T07:58:52;102119.44;;;8.64;100.00
4972;BME280;2501;51.214;6.768;2023-04-08T08:01:21;102116.00;;;8.65;100.00
4972;BME280;2501;51.214;6.768;2023-04-08T08:03:50;102121.22;;;8.65;100.00
4972;BME280;2501;51.214;6.768;2023-04-08T08:06:19;102122.00;;;8.38;100.00
4972;BME280;2501;51.214;6.768;2023-04-08T08:08:50;102128.00;;;8.60;100.00
4972;BME280;2501;51.214;6.768;2023-04-08T08:11:18;102131.63;;;8.63;100.00
4972;BME280;2501;51.214;6.768;2023-04-08T08:13:47;102129.31;;;8.47;100.00
4972;BME280;2501;51.214;6.768;2023-04-08T08:16:15;102135.06;;;8.38;100.00
4972;BME280;2501;51.214;6.768;2023-04-08T08:18:44;102142.31;;;8.46;100.00
4972;BME280;2501;51.214;6.768;2023-04-08T08:21:12;102147.28;;;8.62;100.00
4972;BME280;2501;51.214;6.768;2023-04-08T08:23:41;102153.94;;;8.31;100.00
4972;BME280;2501;51.214;6.768;2023-04-08T08:26:12;102155.59;;;8.52;100.00
4972;BME280;2501;51.214;6.768;2023-04-08T08:28:41;102150.97;;;8.68;100.00
4972;BME280;2501;51.214;6.768;2023-04-08T08:31:09;102155.22;;;8.41;100.00
4972;BME280;2501;51.214;6.768;2023-04-08T08:33:37;102160.50;;;8.20;100.00
4972;BME280;2501;51.214;6.768;2023-04-08T08:36:06;102169.47;;;8.27;100.00
4972;BME280;2501;51.214;6.768;2023-04-08T08:38:34;102164.06;;;8.00;100.00
4972;BME280;2501;51.214;6.768;2023-04-08T08:41:03;102163.75;;;8.15;100.00
4972;BME280;2501;51.214;6.768;2023-04-08T08:43:34;102165.53;;;8.16;100.00
4972;BME280;2501;51.214;6.768;2023-04-08T08:46:03;102160.81;;;8.28;100.00
4972;BME280;2501;51.214;6.768;2023-04-08T08:48:31;102161.88;;;8.33;100.00
4972;BME280;2501;51.214;6.768;2023-04-08T08:51:07;102159.16;;;8.31;100.00
4972;BME280;2501;51.214;6.768;2023-04-08T08:53:36;102163.09;;;8.20;100.00
4972;BME280;2501;51.214;6.768;2023-04-08T08:56:09;102158.59;;;8.16;100.00
4972;BME280;2501;51.214;6.768;2023-04-08T08:58:41;102168.69;;;8.29;100.00
4972;BME280;2501;51.214;6.768;2023-04-08T09:01:30;102164.97;;;8.45;100.00
4972;BME280;2501;51.214;6.768;2023-04-08T09:04:11;102160.13;;;8.56;100.00
4972;BME280;2501;51.214;6.768;2023-04-08T09:06:43;102163.97;;;8.65;100.00
4972;BME280;2501;51.214;6.768;2023-04-08T09:09:12;102165.63;;;8.63;100.00
4972;BME280;2501;51.214;6.768;2023-04-08T09:11:42;102172.72;;;8.67;100.00
4972;BME280;2501;51.214;6.768;2023-04-08T09:14:23;102171.75;;;8.64;100.00
4972;BME280;2501;51.214;6.768;2023-04-08T09:16:52;102172.41;;;8.82;100.00
4972;BME280;2501;51.214;6.768;2023-04-08T09:19:20;102171.56;;;8.35;100.00
4972;BME280;2501;51.214;6.768;2023-04-08T09:22:04;102170.50;;;8.54;100.00
4972;BME280;2501;51.214;6.768;2023-04-08T09:24:33;102168.19;;;8.38;100.00
4972;BME280;2501;51.214;6.768;2023-04-08T09:27:02;102176.00;;;8.16;100.00
4972;BME280;2501;51.214;6.768;2023-04-08T09:29:33;102168.00;;;8.33;100.00
4972;BME280;2501;51.214;6.768;2023-04-08T09:32:01;102169.31;;;8.45;100.00
4972;BME280;2501;51.214;6.768;2023-04-08T09:34:30;102177.59;;;8.57;100.00
4972;BME280;2501;51.214;6.768;2023-04-08T09:36:59;102183.09;;;8.41;100.00
4972;BME280;2501;51.214;6.768;2023-04-08T09:39:27;102190.31;;;8.25;100.00
4972;BME280;2501;51.214;6.768;2023-04-08T09:41:57;102192.06;;;8.71;100.00
4972;BME280;2501;51.214;6.768;2023-04-08T09:44:27;102199.00;;;8.70;100.00
4972;BME280;2501;51.214;6.768;2023-04-08T09:47:04;102195.28;;;8.88;99.91
4972;BME280;2501;51.214;6.768;2023-04-08T09:49:39;102197.41;;;8.98;98.84
4972;BME280;2501;51.214;6.768;2023-04-08T09:52:14;102187.81;;;8.98;97.59
4972;BME280;2501;51.214;6.768;2023-04-08T09:54:52;102197.28;;;9.20;96.48
4972;BME280;2501;51.214;6.768;2023-04-08T09:57:27;102186.81;;;8.71;96.79
4972;BME280;2501;51.214;6.768;2023-04-08T10:00:00;102196.81;;;9.06;95.86
4972;BME280;2501;51.214;6.768;2023-04-08T10:02:41;102201.69;;;9.21;94.25
4972;BME280;2501;51.214;6.768;2023-04-08T10:05:13;102197.13;;;9.66;93.12
4972;BME280;2501;51.214;6.768;2023-04-08T10:07:42;102197.66;;;9.83;91.65
4972;BME280;2501;51.214;6.768;2023-04-08T10:10:11;102191.16;;;9.45;91.27
4972;BME280;2501;51.214;6.768;2023-04-08T10:12:40;102184.16;;;9.44;92.04
4972;BME280;2501;51.214;6.768;2023-04-08T10:15:21;102188.88;;;9.56;91.44
4972;BME280;2501;51.214;6.768;2023-04-08T10:17:53;102194.16;;;9.30;92.33
4972;BME280;2501;51.214;6.768;2023-04-08T10:20:41;102186.75;;;9.19;93.44
4972;BME280;2501;51.214;6.768;2023-04-08T10:23:10;102192.38;;;9.29;92.91
4972;BME280;2501;51.214;6.768;2023-04-08T10:25:40;102195.34;;;9.40;91.13
4972;BME280;2501;51.214;6.768;2023-04-08T10:28:24;102190.53;;;9.52;90.86
4972;BME280;2501;51.214;6.768;2023-04-08T10:30:55;102183.53;;;9.51;90.68
4972;BME280;2501;51.214;6.768;2023-04-08T10:33:31;102187.31;;;9.61;89.99
4972;BME280;2501;51.214;6.768;2023-04-08T10:36:08;102182.16;;;9.37;89.77
4972;BME280;2501;51.214;6.768;2023-04-08T10:38:39;102177.63;;;9.31;90.37
4972;BME280;2501;51.214;6.768;2023-04-08T10:41:09;102187.06;;;9.53;90.26
4972;BME280;2501;51.214;6.768;2023-04-08T10:43:38;102190.31;;;9.73;88.07
4972;BME280;2501;51.214;6.768;2023-04-08T10:46:09;102198.84;;;9.66;85.41
4972;BME280;2501;51.214;6.768;2023-04-08T10:48:40;102193.59;;;10.20;85.26
4972;BME280;2501;51.214;6.768;2023-04-08T10:51:09;102187.50;;;10.21;84.35
4972;BME280;2501;51.214;6.768;2023-04-08T10:53:38;102190.97;;;9.93;84.34
4972;BME280;2501;51.214;6.768;2023-04-08T10:56:08;102193.00;;;10.01;82.83
4972;BME280;2501;51.214;6.768;2023-04-08T10:58:47;102188.75;;;10.06;82.83
4972;BME280;2501;51.214;6.768;2023-04-08T11:01:15;102187.81;;;10.04;82.08
4972;BME280;2501;51.214;6.768;2023-04-08T11:03:47;102188.06;;;10.39;81.38
4972;BME280;2501;51.214;6.768;2023-04-08T11:06:15;102186.34;;;10.12;81.25
4972;BME280;2501;51.214;6.768;2023-04-08T11:08:44;102172.97;;;10.03;80.54
4972;BME280;2501;51.214;6.768;2023-04-08T11:11:13;102169.09;;;11.12;78.87
4972;BME280;2501;51.214;6.768;2023-04-08T11:13:44;102166.75;;;10.91;77.13
4972;BME280;2501;51.214;6.768;2023-04-08T11:16:13;102166.59;;;11.16;75.96
4972;BME280;2501;51.214;6.768;2023-04-08T11:18:42;102159.31;;;11.06;76.88
4972;BME280;2501;51.214;6.768;2023-04-08T11:21:13;102151.81;;;11.20;77.38
4972;BME280;2501;51.214;6.768;2023-04-08T11:23:42;102151.88;;;11.23;75.55
4972;BME280;2501;51.214;6.768;2023-04-08T11:26:10;102150.59;;;10.76;76.59
4972;BME280;2501;51.214;6.768;2023-04-08T11:28:40;102160.69;;;10.61;77.35
4972;BME280;2501;51.214;6.768;2023-04-08T11:31:10;102146.69;;;10.93;76.50
4972;BME280;2501;51.214;6.768;2023-04-08T11:33:44;102158.13;;;11.64;73.58
4972;BME280;2501;51.214;6.768;2023-04-08T11:36:17;102152.34;;;11.08;74.63
4972;BME280;2501;51.214;6.768;2023-04-08T11:38:46;102139.69;;;12.39;71.62
4972;BME280;2501;51.214;6.768;2023-04-08T11:41:15;102143.78;;;11.86;70.64
4972;BME280;2501;51.214;6.768;2023-04-08T11:43:54;102148.19;;;11.51;72.87
4972;BME280;2501;51.214;6.768;2023-04-08T11:46:23;102153.31;;;11.46;72.44
4972;BME280;2501;51.214;6.768;2023-04-08T11:48:59;102142.53;;;12.08;69.49
4972;BME280;2501;51.214;6.768;2023-04-08T11:51:30;102138.16;;;12.08;66.23
4972;BME280;2501;51.214;6.768;2023-04-08T11:53:59;102144.38;;;11.38;62.61
4972;BME280;2501;51.214;6.768;2023-04-08T11:56:28;102146.44;;;11.51;59.93
4972;BME280;2501;51.214;6.768;2023-04-08T11:58:58;102155.75;;;11.37;55.51
4972;BME280;2501;51.214;6.768;2023-04-08T12:01:26;102152.34;;;11.43;53.52
4972;BME280;2501;51.214;6.768;2023-04-08T12:03:56;102141.34;;;11.58;54.91
4972;BME280;2501;51.214;6.768;2023-04-08T12:06:27;102150.88;;;11.18;52.89
4972;BME280;2501;51.214;6.768;2023-04-08T12:08:58;102155.94;;;11.46;51.27
4972;BME280;2501;51.214;6.768;2023-04-08T12:11:29;102150.38;;;11.00;51.63
4972;BME280;2501;51.214;6.768;2023-04-08T12:14:00;102151.28;;;11.00;53.09
4972;BME280;2501;51.214;6.768;2023-04-08T12:16:29;102160.47;;;11.18;54.65
4972;BME280;2501;51.214;6.768;2023-04-08T12:18:57;102160.78;;;11.30;55.44
4972;BME280;2501;51.214;6.768;2023-04-08T12:21:26;102161.25;;;11.13;57.03
4972;BME280;2501;51.214;6.768;2023-04-08T12:23:54;102162.81;;;11.05;57.12
4972;BME280;2501;51.214;6.768;2023-04-08T12:26:26;102168.69;;;10.65;57.40
4972;BME280;2501;51.214;6.768;2023-04-08T12:28:54;102167.94;;;10.39;56.84
4972;BME280;2501;51.214;6.768;2023-04-08T12:31:23;102171.75;;;10.80;56.68
4972;BME280;2501;51.214;6.768;2023-04-08T12:33:52;102171.47;;;10.70;56.88
4972;BME280;2501;51.214;6.768;2023-04-08T12:36:20;102175.25;;;10.50;57.02
4972;BME280;2501;51.214;6.768;2023-04-08T12:38:49;102176.53;;;10.34;57.85
4972;BME280;2501;51.214;6.768;2023-04-08T12:41:17;102182.22;;;10.49;58.32
4972;BME280;2501;51.214;6.768;2023-04-08T12:43:48;102178.06;;;10.56;58.40
4972;BME280;2501;51.214;6.768;2023-04-08T12:46:17;102185.53;;;10.43;58.03
4972;BME280;2501;51.214;6.768;2023-04-08T12:48:46;102188.31;;;10.48;58.37
4972;BME280;2501;51.214;6.768;2023-04-08T12:51:14;102179.09;;;10.62;58.18
4972;BME280;2501;51.214;6.768;2023-04-08T12:53:43;102186.16;;;10.65;58.81
4972;BME280;2501;51.214;6.768;2023-04-08T12:56:12;102181.34;;;10.49;59.61
4972;BME280;2501;51.214;6.768;2023-04-08T12:58:40;102188.44;;;10.53;59.71
4972;BME280;2501;51.214;6.768;2023-04-08T13:01:11;102171.94;;;10.57;60.23
4972;BME280;2501;51.214;6.768;2023-04-08T13:03:40;102175.34;;;10.53;60.94
4972;BME280;2501;51.214;6.768;2023-04-08T13:06:08;102178.72;;;10.49;61.36
4972;BME280;2501;51.214;6.768;2023-04-08T13:08:36;102168.75;;;10.67;61.81
4972;BME280;2501;51.214;6.768;2023-04-08T13:11:06;102168.56;;;10.61;62.53
4972;BME280;2501;51.214;6.768;2023-04-08T13:13:34;102172.22;;;10.66;62.35
4972;BME280;2501;51.214;6.768;2023-04-08T13:16:03;102166.53;;;10.51;62.88
4972;BME280;2501;51.214;6.768;2023-04-08T13:18:34;102163.19;;;10.88;63.85
4972;BME280;2501;51.214;6.768;2023-04-08T13:21:04;102160.22;;;11.08;62.40
4972;BME280;2501;51.214;6.768;2023-04-08T13:23:32;102163.28;;;11.24;61.47
4972;BME280;2501;51.214;6.768;2023-04-08T13:26:01;102163.31;;;11.27;62.25